createdAt,value
2022-10-05T00:00:05.311Z,69.10156
2022-10-05T00:02:05.471Z,69.08203
2022-10-05T00:04:05.442Z,68.90527
2022-10-05T00:06:05.333Z,68.94238
2022-10-05T00:08:05.386Z,68.98828
2022-10-05T00:11:21.381Z,69.17383
2022-10-05T00:13:21.366Z,68.57715
2022-10-05T00:15:21.323Z,68.68652
2022-10-05T00:17:21.407Z,68.35059
2022-10-05T00:19:21.358Z,68.5293
2022-10-05T00:21:21.311Z,68.96484
2022-10-05T00:23:21.371Z,69.52441
2022-10-05T00:26:58.263Z,69.14648
2022-10-05T00:28:51.268Z,69.01367
2022-10-05T00:30:51.240Z,69.11621
2022-10-05T00:32:57.368Z,69.33887
2022-10-05T00:34:51.145Z,69.46094
2022-10-05T00:36:51.264Z,69.47168
2022-10-05T00:38:51.261Z,69.11719
2022-10-05T00:41:27.885Z,69.82617
2022-10-05T00:43:27.910Z,70.25684
2022-10-05T00:45:27.973Z,69.39063
2022-10-05T00:47:27.851Z,69.57715
2022-10-05T00:49:27.839Z,69.85254
2022-10-05T00:51:27.878Z,69.65527
2022-10-05T00:53:27.862Z,69.30859
2022-10-05T00:55:27.850Z,69.7334
2022-10-05T00:56:57.809Z,69.8252
2022-10-05T00:58:57.815Z,68.98535
2022-10-05T01:00:57.911Z,69.59863
2022-10-05T01:02:57.741Z,69.53418
2022-10-05T01:04:57.741Z,69.37109
2022-10-05T01:06:57.801Z,69.5459
2022-10-05T01:08:57.724Z,69.42285
2022-10-05T01:12:16.655Z,69.79102
2022-10-05T01:14:16.670Z,70.60156
2022-10-05T01:16:16.701Z,70.46777
2022-10-05T01:18:16.679Z,69.97363
2022-10-05T01:20:16.580Z,70.12402
2022-10-05T01:22:16.603Z,70.22559
2022-10-05T01:24:16.631Z,69.64746
2022-10-05T01:27:42.432Z,70.00488
2022-10-05T01:29:42.431Z,69.65039
2022-10-05T01:31:42.600Z,69.91113
2022-10-05T01:33:42.407Z,69.80371
2022-10-05T01:35:42.415Z,69.51855
2022-10-05T01:37:42.418Z,69.61523
2022-10-05T01:39:42.384Z,70.46094
2022-10-05T01:42:44.497Z,70.5625
2022-10-05T01:44:44.468Z,70.23242
2022-10-05T01:46:45.400Z,69.76367
2022-10-05T01:48:44.471Z,69.51758
2022-10-05T01:50:44.473Z,69.34277
2022-10-05T01:52:44.539Z,69.91797
2022-10-05T01:54:44.451Z,69.81445
2022-10-05T01:57:21.723Z,69.5625
2022-10-05T01:59:21.678Z,69.58984
2022-10-05T02:01:21.780Z,69.11035
2022-10-05T02:03:21.726Z,69.62598
2022-10-05T02:05:21.658Z,69.72949
2022-10-05T02:07:21.667Z,69.2041
2022-10-05T02:09:21.666Z,68.99219
2022-10-05T02:11:21.711Z,69.07715
2022-10-05T02:13:24.560Z,69.41895
2022-10-05T02:15:24.573Z,69.37109
2022-10-05T02:17:24.544Z,69.7002
2022-10-05T02:19:24.601Z,69.71875
2022-10-05T02:21:24.555Z,70.08301
2022-10-05T02:23:24.587Z,69.87305
2022-10-05T02:25:24.531Z,69.85254
2022-10-05T02:28:06.816Z,69.80273
2022-10-05T02:30:06.748Z,70.12793
2022-10-05T02:32:06.699Z,70.09277
2022-10-05T02:34:06.711Z,70.31641
2022-10-05T02:36:06.775Z,70.20703
2022-10-05T02:38:06.690Z,70.08887
2022-10-05T02:40:06.762Z,70.49512
2022-10-05T02:42:46.490Z,70.05176
2022-10-05T02:44:46.390Z,70.60938
2022-10-05T02:46:47.076Z,70.97168
2022-10-05T02:48:46.431Z,70.3584
2022-10-05T02:50:46.412Z,70.5752
2022-10-05T02:52:46.523Z,70.67578
2022-10-05T02:54:46.347Z,70.19336
2022-10-05T02:56:47.037Z,70.90234
2022-10-05T02:58:21.831Z,70.46973
2022-10-05T03:00:21.826Z,69.97168
2022-10-05T03:02:22.326Z,70.38867
2022-10-05T03:04:21.861Z,70.27441
2022-10-05T03:06:21.807Z,70.13379
2022-10-05T03:08:21.856Z,70.47852
2022-10-05T03:10:21.846Z,70.0166
2022-10-05T03:13:38.552Z,70.20605
2022-10-05T03:15:38.807Z,70.24707
2022-10-05T03:17:38.553Z,69.83398
2022-10-05T03:19:38.572Z,69.58008
2022-10-05T03:21:38.546Z,69.91016
2022-10-05T03:23:38.590Z,69.70117
2022-10-05T03:25:38.551Z,69.12988
2022-10-05T03:29:10.951Z,68.54199
2022-10-05T03:31:11.125Z,68.62891
2022-10-05T03:33:10.958Z,68.55078
2022-10-05T03:35:10.926Z,68.55957
2022-10-05T03:37:10.912Z,68.94629
2022-10-05T03:39:10.983Z,68.90137
2022-10-05T03:41:10.923Z,68.96484
2022-10-05T03:43:51.478Z,68.94824
2022-10-05T03:45:51.520Z,68.99023
2022-10-05T03:47:51.480Z,69.27441
2022-10-05T03:49:51.520Z,68.94727
2022-10-05T03:51:51.481Z,68.97461
2022-10-05T03:53:51.467Z,69.11914
2022-10-05T03:55:51.611Z,69.2373
2022-10-05T03:58:54.613Z,69.07813
2022-10-05T04:00:54.639Z,69.51855
2022-10-05T04:02:54.708Z,69.24219
2022-10-05T04:04:54.665Z,69.35938
2022-10-05T04:06:54.656Z,69.76465
2022-10-05T04:08:54.613Z,69.61621
2022-10-05T04:10:54.684Z,68.79395
2022-10-05T04:14:34.905Z,69.24707
2022-10-05T04:16:34.967Z,69.1582
2022-10-05T04:18:34.876Z,69.29688
2022-10-05T04:20:34.817Z,69.41211
2022-10-05T04:22:34.882Z,69.29492
2022-10-05T04:24:34.802Z,69.58789
2022-10-05T04:26:34.855Z,69.75
2022-10-05T04:29:05.830Z,69.36426
2022-10-05T04:31:06.010Z,70.07617
2022-10-05T04:33:05.869Z,69.76172
2022-10-05T04:35:06.283Z,69.36719
2022-10-05T04:37:05.835Z,69.79883
2022-10-05T04:39:05.876Z,70.18848
2022-10-05T04:41:05.852Z,70.54004
2022-10-05T04:44:12.425Z,70.62793
2022-10-05T04:46:12.408Z,70.21582
2022-10-05T04:48:12.371Z,69.94336
2022-10-05T04:50:12.359Z,70.26758
2022-10-05T04:52:12.373Z,70.32324
2022-10-05T04:54:12.363Z,70.33887
2022-10-05T04:56:12.381Z,70.42676
2022-10-05T04:58:12.405Z,70.48828
2022-10-05T04:59:27.274Z,70.74023
2022-10-05T05:01:27.180Z,71.08496
2022-10-05T05:03:27.340Z,71.11328
2022-10-05T05:05:27.165Z,71.27441
2022-10-05T05:07:27.197Z,70.82422
2022-10-05T05:09:27.171Z,70.29102
2022-10-05T05:11:27.233Z,70.52637
2022-10-05T05:14:52.839Z,70.6377
2022-10-05T05:16:52.783Z,71.38086
2022-10-05T05:18:52.762Z,70.98535
2022-10-05T05:20:52.784Z,71.6875
2022-10-05T05:22:52.772Z,71.21875
2022-10-05T05:24:52.811Z,71.75293
2022-10-05T05:26:52.813Z,71.37988
2022-10-05T05:29:52.175Z,71.46191
2022-10-05T05:31:52.150Z,71.23633
2022-10-05T05:33:52.098Z,72.18066
2022-10-05T05:35:52.124Z,71.73145
2022-10-05T05:37:52.131Z,71.9873
2022-10-05T05:39:52.922Z,72.24121
2022-10-05T05:41:52.165Z,72.25781
2022-10-05T05:45:11.618Z,73.06836
2022-10-05T05:47:13.339Z,73.21484
2022-10-05T05:49:11.702Z,73.41602
2022-10-05T05:51:11.666Z,74.6543
2022-10-05T05:53:11.783Z,74.04883
2022-10-05T05:55:11.633Z,73.3877
2022-10-05T05:57:11.742Z,73.34961
2022-10-05T05:59:57.731Z,73.81055
2022-10-05T06:01:57.964Z,74.07227
2022-10-05T06:03:57.856Z,75.11328
2022-10-05T06:05:57.680Z,73.91016
2022-10-05T06:07:57.754Z,74.3418
2022-10-05T06:09:57.996Z,74.41699
2022-10-05T06:11:57.918Z,73.62207
2022-10-05T06:13:57.811Z,73.88184
2022-10-05T06:15:47.614Z,74.56543
2022-10-05T06:17:47.535Z,73.66602
2022-10-05T06:19:48.052Z,73.99512
2022-10-05T06:21:48.411Z,73.60645
2022-10-05T06:23:47.742Z,72.0293
2022-10-05T06:25:48.393Z,72.59766
2022-10-05T06:27:47.568Z,72.64453
2022-10-05T06:30:49.399Z,73.06348
2022-10-05T06:32:49.439Z,72.8457
2022-10-05T06:34:49.355Z,74.42285
2022-10-05T06:36:50.101Z,74.45996
2022-10-05T06:38:49.433Z,73.44043
2022-10-05T06:40:49.388Z,73.72168
2022-10-05T06:42:49.332Z,73.85645
2022-10-05T06:45:26.579Z,74.67773
2022-10-05T06:47:26.664Z,73.99805
2022-10-05T06:49:26.479Z,73.4707
2022-10-05T06:51:26.531Z,73.78516
2022-10-05T06:53:26.588Z,72.82422
2022-10-05T06:55:26.482Z,74.07715
2022-10-05T06:57:26.573Z,73.74414
2022-10-05T06:59:26.440Z,72.84961
2022-10-05T07:01:13.659Z,72.75
2022-10-05T07:03:13.470Z,72.93066
2022-10-05T07:05:13.497Z,73.15234
2022-10-05T07:07:13.521Z,72.69141
2022-10-05T07:09:13.519Z,73.14355
2022-10-05T07:11:13.453Z,73.30957
2022-10-05T07:13:13.470Z,72.70508
2022-10-05T07:16:13.632Z,73.0332
2022-10-05T07:18:13.493Z,72.59766
2022-10-05T07:20:13.675Z,73.1123
2022-10-05T07:22:13.469Z,73.11914
2022-10-05T07:24:13.503Z,73.18359
2022-10-05T07:26:13.493Z,72.24805
2022-10-05T07:28:13.549Z,71.98535
2022-10-05T07:31:15.207Z,70.25293
2022-10-05T07:33:14.939Z,71.79199
2022-10-05T07:35:14.993Z,72.83301
2022-10-05T07:37:15.037Z,72.58887
2022-10-05T07:39:14.914Z,73.33887
2022-10-05T07:41:14.991Z,74.08105
2022-10-05T07:43:15.082Z,71.81348
2022-10-05T07:46:40.958Z,71.10059
2022-10-05T07:48:40.833Z,71.98242
2022-10-05T07:50:40.829Z,72.20605
2022-10-05T07:52:40.853Z,74.45703
2022-10-05T07:54:40.871Z,72.94531
2022-10-05T07:56:40.882Z,70.83887
2022-10-05T07:58:40.935Z,70.75293
2022-10-05T08:01:38.266Z,71.6377
2022-10-05T08:03:38.124Z,71.57031
2022-10-05T08:05:38.154Z,70.96387
2022-10-05T08:07:38.127Z,70.97852
2022-10-05T08:09:38.162Z,69.43848
2022-10-05T08:11:38.199Z,66.5498
2022-10-05T08:13:38.183Z,66.81738
2022-10-05T08:17:26.486Z,65.78027
2022-10-05T08:19:21.858Z,64.89355
2022-10-05T08:21:21.101Z,63.36914
2022-10-05T08:23:21.111Z,62.15527
2022-10-05T08:25:21.079Z,63.68262
2022-10-05T08:27:21.079Z,63.04297
2022-10-05T08:29:21.114Z,61.63281
2022-10-05T08:32:24.482Z,61.20313
2022-10-05T08:34:24.498Z,60.09082
2022-10-05T08:36:24.474Z,60.89941
2022-10-05T08:38:24.434Z,60.60645
2022-10-05T08:40:24.574Z,59.79785
2022-10-05T08:42:24.419Z,58.76172
2022-10-05T08:44:24.439Z,57.50586
2022-10-05T08:47:30.508Z,57.41602
2022-10-05T08:49:35.472Z,57.75488
2022-10-05T08:51:30.560Z,57.10254
2022-10-05T08:53:30.518Z,57.06348
2022-10-05T08:55:30.530Z,56.23047
2022-10-05T08:57:30.489Z,54.42871
2022-10-05T08:59:30.546Z,55.85547
2022-10-05T09:02:12.026Z,55.30176
2022-10-05T09:04:11.924Z,54.7334
2022-10-05T09:06:12.006Z,55.12793
2022-10-05T09:08:11.877Z,54.74512
2022-10-05T09:10:12.140Z,52.47266
2022-10-05T09:12:11.900Z,53.6709
2022-10-05T09:14:11.879Z,52.0459
2022-10-05T09:17:39.593Z,53.89453
2022-10-05T09:19:35.257Z,53.28125
2022-10-05T09:21:35.323Z,53.59082
2022-10-05T09:23:35.175Z,53.64063
2022-10-05T09:25:35.183Z,53.05176
2022-10-05T09:27:35.192Z,52.76855
2022-10-05T09:29:35.151Z,51.83203
2022-10-05T09:32:45.417Z,50.79297
2022-10-05T09:34:45.518Z,51.46484
2022-10-05T09:36:45.471Z,51.2207
2022-10-05T09:38:45.428Z,50.08105
2022-10-05T09:40:45.422Z,49.25488
2022-10-05T09:42:45.409Z,48.51172
2022-10-05T09:44:45.449Z,49.07031
2022-10-05T09:47:44.381Z,48.5166
2022-10-05T09:49:44.325Z,48.61328
2022-10-05T09:51:45.053Z,46.65234
2022-10-05T09:53:44.315Z,48.24023
2022-10-05T09:55:44.283Z,48.14648
2022-10-05T09:57:44.381Z,47.56738
2022-10-05T09:59:44.270Z,45.53516
2022-10-05T10:02:48.400Z,48.09473
2022-10-05T10:04:48.254Z,47.27051
2022-10-05T10:06:48.257Z,45.74121
2022-10-05T10:08:48.266Z,44.49414
2022-10-05T10:10:48.253Z,45.21484
2022-10-05T10:12:48.284Z,45.05566
2022-10-05T10:14:48.211Z,42.75781
2022-10-05T10:16:49.151Z,43.09473
2022-10-05T10:18:33.660Z,45.00195
2022-10-05T10:20:33.658Z,44.55176
2022-10-05T10:22:33.706Z,43.46484
2022-10-05T10:24:33.738Z,43.4375
2022-10-05T10:26:33.649Z,43.59082
2022-10-05T10:28:33.869Z,43.16699
2022-10-05T10:30:36.820Z,43.5
2022-10-05T10:33:22.400Z,42.31738
2022-10-05T10:35:22.467Z,43.64063
2022-10-05T10:37:22.284Z,43.27246
2022-10-05T10:39:22.349Z,41.54785
2022-10-05T10:41:22.441Z,41.58594
2022-10-05T10:43:22.289Z,42.92676
2022-10-05T10:45:22.333Z,41.72754
2022-10-05T10:48:59.109Z,41.88965
2022-10-05T10:50:59.161Z,41.24121
2022-10-05T10:52:59.118Z,40.59277
2022-10-05T10:54:59.275Z,43.86426
2022-10-05T10:56:59.179Z,42.1377
2022-10-05T10:58:59.135Z,40.74609
2022-10-05T11:00:59.100Z,41.4043
2022-10-05T11:03:59.982Z,39.9082
2022-10-05T11:05:59.816Z,42.05469
2022-10-05T11:07:59.876Z,41.15039
2022-10-05T11:09:59.759Z,40.98633
2022-10-05T11:11:59.866Z,41.38867
2022-10-05T11:13:59.819Z,39.89355
2022-10-05T11:16:00.096Z,38.80762
2022-10-05T11:19:40.670Z,41.11523
2022-10-05T11:21:27.324Z,40.92285
2022-10-05T11:23:27.302Z,42.27832
2022-10-05T11:25:27.352Z,41.83887
2022-10-05T11:27:27.347Z,41.7793
2022-10-05T11:29:27.352Z,40.50391
2022-10-05T11:31:27.483Z,40.86719
2022-10-05T11:33:49.267Z,41.09082
2022-10-05T11:35:49.213Z,40.9209
2022-10-05T11:37:49.265Z,41.69043
2022-10-05T11:39:49.233Z,41.50488
2022-10-05T11:41:50.292Z,40.49219
2022-10-05T11:43:49.337Z,40.70898
2022-10-05T11:45:49.246Z,41.51563
2022-10-05T11:47:49.216Z,39.62305
2022-10-05T11:49:06.859Z,40.11133
2022-10-05T11:51:06.766Z,40.91113
2022-10-05T11:53:06.939Z,40.63867
2022-10-05T11:55:12.314Z,39.96973
2022-10-05T11:57:06.799Z,39.96973
2022-10-05T11:59:06.842Z,40.75977
2022-10-05T12:01:06.882Z,40.21289
2022-10-05T12:04:13.454Z,40.47168
2022-10-05T12:06:13.347Z,39.15137
2022-10-05T12:08:13.484Z,39.38477
2022-10-05T12:10:13.829Z,40.31445
2022-10-05T12:12:13.319Z,39.86426
2022-10-05T12:14:13.307Z,39.48535
2022-10-05T12:16:13.412Z,40.23828
2022-10-05T12:19:36.167Z,40.18945
2022-10-05T12:21:36.186Z,40.7373
2022-10-05T12:23:36.172Z,39.74609
2022-10-05T12:25:36.195Z,39.76367
2022-10-05T12:27:36.182Z,39.26367
2022-10-05T12:29:36.221Z,39.07813
2022-10-05T12:31:36.445Z,39.75195
2022-10-05T12:34:20.366Z,40.48926
2022-10-05T12:36:20.386Z,39.95605
2022-10-05T12:38:20.308Z,39.56641
2022-10-05T12:40:20.325Z,39.65137
2022-10-05T12:42:20.364Z,39.7627
2022-10-05T12:44:20.326Z,39.18555
2022-10-05T12:46:20.311Z,39.54883
2022-10-05T12:48:20.358Z,38.75977
2022-10-05T12:50:29.949Z,38.57715
2022-10-05T12:52:29.804Z,39.11719
2022-10-05T12:54:29.779Z,39.55566
2022-10-05T12:56:29.747Z,38.43848
2022-10-05T12:58:29.823Z,38.86133
2022-10-05T13:00:29.825Z,38.53711
2022-10-05T13:02:29.832Z,38.13184
2022-10-05T13:05:35.323Z,38.30371
2022-10-05T13:07:35.259Z,38.17285
2022-10-05T13:09:35.209Z,38.78711
2022-10-05T13:11:35.219Z,37.8252
2022-10-05T13:13:35.274Z,38.82715
2022-10-05T13:15:35.213Z,38.4082
2022-10-05T13:17:35.277Z,37.5332
2022-10-05T13:19:59.361Z,37.69922
2022-10-05T13:21:59.290Z,38.15527
2022-10-05T13:23:59.338Z,38.00391
2022-10-05T13:25:59.290Z,37.51465
2022-10-05T13:27:59.393Z,37.36621
2022-10-05T13:29:59.309Z,38.2627
2022-10-05T13:31:59.384Z,37.37891
2022-10-05T13:33:59.319Z,37.66113
2022-10-05T13:35:32.393Z,37.97559
2022-10-05T13:37:32.448Z,38.85742
2022-10-05T13:39:32.416Z,39.53516
2022-10-05T13:41:32.447Z,38.84766
2022-10-05T13:43:32.564Z,38.50977
2022-10-05T13:45:32.601Z,38.33008
2022-10-05T13:47:32.396Z,38.50488
2022-10-05T13:50:14.808Z,39.4502
2022-10-05T13:52:14.683Z,39.18555
2022-10-05T13:54:14.866Z,38.83691
2022-10-05T13:56:14.681Z,38.14258
2022-10-05T13:58:14.685Z,38.5332
2022-10-05T14:00:14.676Z,38.01563
2022-10-05T14:02:14.736Z,38.64453
2022-10-05T14:04:14.720Z,38.24414
2022-10-05T14:05:24.493Z,38.65137
2022-10-05T14:07:24.580Z,39.33691
2022-10-05T14:09:24.556Z,38.19336
2022-10-05T14:11:24.466Z,37.99414
2022-10-05T14:13:24.523Z,37.88965
2022-10-05T14:15:24.503Z,37.97852
2022-10-05T14:17:30.701Z,38.12988
2022-10-05T14:19:24.475Z,38.3457
2022-10-05T14:21:23.960Z,39.26758
2022-10-05T14:23:24.686Z,38.54297
2022-10-05T14:25:23.960Z,41.13477
2022-10-05T14:27:23.940Z,40.88281
2022-10-05T14:29:23.932Z,39.88379
2022-10-05T14:31:24.060Z,41.37305
2022-10-05T14:33:23.983Z,41.09766
2022-10-05T14:36:16.511Z,39.77441
2022-10-05T14:38:16.559Z,40.6084
2022-10-05T14:40:16.465Z,40.4043
2022-10-05T14:42:16.650Z,39.97363
2022-10-05T14:44:16.479Z,39.04688
2022-10-05T14:46:20.571Z,41.49805
2022-10-05T14:48:16.464Z,41.67383
2022-10-05T14:50:58.733Z,42.01855
2022-10-05T14:52:58.781Z,42.85449
2022-10-05T14:54:58.745Z,43.6123
2022-10-05T14:56:58.713Z,44.34668
2022-10-05T14:58:58.781Z,44.63477
2022-10-05T15:00:58.901Z,43.97852
2022-10-05T15:02:58.764Z,44.31348
2022-10-05T15:04:58.715Z,43.44922
2022-10-05T15:06:43.375Z,43.92188
2022-10-05T15:08:43.338Z,43.39258
2022-10-05T15:10:43.369Z,43.69824
2022-10-05T15:12:43.401Z,44.32324
2022-10-05T15:14:43.385Z,44.1377
2022-10-05T15:16:43.473Z,44.5127
2022-10-05T15:18:43.373Z,45.12695
2022-10-05T15:22:06.973Z,46.83105
2022-10-05T15:24:06.973Z,47.51172
2022-10-05T15:26:06.991Z,47.79785
2022-10-05T15:28:07.113Z,48.09961
2022-10-05T15:30:07.122Z,48.11816
2022-10-05T15:32:06.950Z,47.95117
2022-10-05T15:34:06.983Z,48.09766
2022-10-05T15:36:27.749Z,48.3457
2022-10-05T15:38:27.755Z,48.68652
2022-10-05T15:40:27.818Z,48.60352
2022-10-05T15:42:28.130Z,49.27637
2022-10-05T15:44:28.182Z,49.51758
2022-10-05T15:46:27.974Z,49.89648
2022-10-05T15:48:27.885Z,50.24121
2022-10-05T15:50:27.743Z,50.52539
2022-10-05T15:52:03.133Z,50.30957
2022-10-05T15:54:06.970Z,50.83887
2022-10-05T15:56:03.204Z,50.53027
2022-10-05T15:58:03.225Z,50.7666
2022-10-05T16:00:03.135Z,51.13379
2022-10-05T16:02:03.341Z,51.23633
2022-10-05T16:04:03.132Z,51.40625
2022-10-05T16:07:36.675Z,51.97852
2022-10-05T16:09:36.650Z,51.98926
2022-10-05T16:11:36.691Z,52.05176
2022-10-05T16:13:36.657Z,52.18555
2022-10-05T16:15:36.647Z,52.49219
2022-10-05T16:17:36.693Z,52.55078
2022-10-05T16:19:36.697Z,53.01074
2022-10-05T16:22:28.535Z,53.09863
2022-10-05T16:24:28.468Z,53.18652
2022-10-05T16:26:28.500Z,53.36621
2022-10-05T16:28:28.537Z,53.7041
2022-10-05T16:30:28.568Z,53.7373
2022-10-05T16:32:28.560Z,54.04395
2022-10-05T16:34:28.514Z,53.87305
2022-10-05T16:37:43.350Z,53.87207
2022-10-05T16:39:43.326Z,54.07813
2022-10-05T16:41:43.345Z,54.58594
2022-10-05T16:43:43.357Z,54.70996
2022-10-05T16:45:46.076Z,55.06055
2022-10-05T16:47:43.309Z,54.74121
2022-10-05T16:49:43.334Z,54.73633
2022-10-05T16:52:16.253Z,54.92578
2022-10-05T16:54:16.203Z,54.93848
2022-10-05T16:56:16.203Z,55.31738
2022-10-05T16:58:16.216Z,55.64551
2022-10-05T17:00:16.455Z,55.5791
2022-10-05T17:02:16.389Z,55.80469
2022-10-05T17:04:16.299Z,55.99902
2022-10-05T17:06:16.230Z,55.80078
2022-10-05T17:07:46.041Z,56.1709
2022-10-05T17:09:46.043Z,55.87695
2022-10-05T17:11:46.011Z,56.11035
2022-10-05T17:13:46.058Z,56.3125
2022-10-05T17:15:46.090Z,56.64648
2022-10-05T17:17:46.077Z,56.6709
2022-10-05T17:19:46.031Z,56.75781
2022-10-05T17:23:32.861Z,56.99414
2022-10-05T17:25:32.723Z,57.10059
2022-10-05T17:27:32.787Z,57.35742
2022-10-05T17:29:32.729Z,57.45801
2022-10-05T17:31:32.730Z,57.52832
2022-10-05T17:33:32.770Z,57.38086
2022-10-05T17:35:32.760Z,57.3584
2022-10-05T17:38:20.322Z,57.96191
2022-10-05T17:40:26.392Z,58.50684
2022-10-05T17:42:20.306Z,58.4834
2022-10-05T17:44:20.375Z,58.19824
2022-10-05T17:46:20.333Z,58.54395
2022-10-05T17:48:20.330Z,58.78809
2022-10-05T17:50:20.390Z,58.43262
2022-10-05T17:53:03.945Z,58.60059
2022-10-05T17:55:04.074Z,58.71484
2022-10-05T17:57:03.906Z,58.9209
2022-10-05T17:59:03.880Z,58.39453
2022-10-05T18:01:03.927Z,59.31836
2022-10-05T18:03:04.020Z,58.76465
2022-10-05T18:05:03.893Z,59.48535
2022-10-05T18:08:15.151Z,58.55371
2022-10-05T18:10:15.082Z,59.34766
2022-10-05T18:12:15.089Z,59.53418
2022-10-05T18:14:15.071Z,59.38574
2022-10-05T18:16:15.177Z,59.04297
2022-10-05T18:18:15.156Z,59.20605
2022-10-05T18:20:15.046Z,59.43262
2022-10-05T18:23:28.525Z,59.80078
2022-10-05T18:25:28.371Z,59.7002
2022-10-05T18:27:31.089Z,59.60742
2022-10-05T18:29:28.385Z,59.70703
2022-10-05T18:31:28.538Z,59.63867
2022-10-05T18:33:28.492Z,60.08887
2022-10-05T18:35:28.365Z,60.30176
2022-10-05T18:38:29.423Z,60.16992
2022-10-05T18:40:28.829Z,60.62891
2022-10-05T18:42:28.846Z,61.14551
2022-10-05T18:44:28.887Z,60.58887
2022-10-05T18:46:28.959Z,60.7832
2022-10-05T18:48:29.825Z,61.46973
2022-10-05T18:50:28.871Z,61.27148
2022-10-05T18:52:28.940Z,60.81738
2022-10-05T18:53:31.900Z,60.73633
2022-10-05T18:55:31.975Z,60.89746
2022-10-05T18:57:31.942Z,60.88477
2022-10-05T18:59:31.993Z,61.04492
2022-10-05T19:01:32.112Z,61.05762
2022-10-05T19:03:31.841Z,61.06445
2022-10-05T19:05:49.338Z,61.36035
2022-10-05T19:07:31.840Z,61.61816
2022-10-05T19:09:14.760Z,61.37305
2022-10-05T19:11:14.737Z,61.2627
2022-10-05T19:13:14.713Z,61.77539
2022-10-05T19:15:14.752Z,62.02734
2022-10-05T19:17:14.755Z,61.51563
2022-10-05T19:19:14.709Z,61.8252
2022-10-05T19:21:14.709Z,61.83691
2022-10-05T19:23:52.428Z,62.03613
2022-10-05T19:25:52.446Z,61.6416
2022-10-05T19:27:55.702Z,61.7207
2022-10-05T19:29:52.458Z,62.00293
2022-10-05T19:31:52.454Z,62.35059
2022-10-05T19:33:52.415Z,61.70215
2022-10-05T19:35:52.437Z,61.77539
2022-10-05T19:37:52.404Z,62.29102
2022-10-05T19:39:04.453Z,61.94922
2022-10-05T19:41:04.412Z,62.56934
2022-10-05T19:43:04.492Z,62.0166
2022-10-05T19:45:04.429Z,62.46582
2022-10-05T19:47:04.485Z,62.59863
2022-10-05T19:49:04.411Z,62.70117
2022-10-05T19:51:04.455Z,62.6748
2022-10-05T19:53:04.668Z,62.99121
2022-10-05T19:54:21.759Z,63.07715
2022-10-05T19:56:21.775Z,63.14355
2022-10-05T19:58:21.715Z,63.14355
2022-10-05T20:00:21.811Z,63.52637
2022-10-05T20:02:21.967Z,62.79883
2022-10-05T20:04:21.783Z,63.07324
2022-10-05T20:06:21.744Z,62.53906
2022-10-05T20:09:29.363Z,63.30859
2022-10-05T20:11:29.258Z,63.3125
2022-10-05T20:13:29.255Z,63.31934
2022-10-05T20:15:29.323Z,63.03613
2022-10-05T20:17:29.740Z,63.05273
2022-10-05T20:19:29.250Z,63.45117
2022-10-05T20:21:29.286Z,63.72559
2022-10-05T20:23:29.243Z,63.21875
2022-10-05T20:24:48.958Z,63.08203
2022-10-05T20:26:49.014Z,63.45117
2022-10-05T20:28:49.102Z,63.6543
2022-10-05T20:30:48.951Z,63.92188
2022-10-05T20:32:48.943Z,63.6416
2022-10-05T20:34:48.941Z,63.89844
2022-10-05T20:36:48.989Z,64.45996
2022-10-05T20:39:40.936Z,64.10156
2022-10-05T20:41:40.989Z,64.22656
2022-10-05T20:43:40.938Z,64.56348
2022-10-05T20:45:40.960Z,64.74707
2022-10-05T20:47:40.955Z,64.58105
2022-10-05T20:49:40.977Z,64.63184
2022-10-05T20:51:40.957Z,64.91016
2022-10-05T20:53:40.962Z,64.49023
2022-10-05T20:54:54.325Z,64.57715
2022-10-05T20:56:54.045Z,65.02441
2022-10-05T20:58:54.016Z,64.89453
2022-10-05T21:00:54.076Z,64.97949
2022-10-05T21:02:53.990Z,65.09277
2022-10-05T21:04:54.089Z,64.96777
2022-10-05T21:06:53.983Z,65.14648
2022-10-05T21:08:54.002Z,64.77637
2022-10-05T21:10:20.912Z,65.2041
2022-10-05T21:12:20.916Z,64.75977
2022-10-05T21:14:20.919Z,64.75098
2022-10-05T21:16:21.133Z,64.67969
2022-10-05T21:18:20.958Z,65.00781
2022-10-05T21:20:20.948Z,65.34375
2022-10-05T21:22:20.872Z,65.49023
2022-10-05T21:25:11.909Z,65.33887
2022-10-05T21:27:11.886Z,65.85059
2022-10-05T21:29:13.215Z,65.80859
2022-10-05T21:31:12.068Z,66.1377
2022-10-05T21:33:11.913Z,65.43164
2022-10-05T21:35:11.901Z,66.08203
2022-10-05T21:37:12.038Z,65.3877
2022-10-05T21:39:11.908Z,65.70215
2022-10-05T21:40:47.769Z,65.64453
2022-10-05T21:42:47.760Z,65.38379
2022-10-05T21:44:47.794Z,65.60742
2022-10-05T21:46:47.726Z,65.67871
2022-10-05T21:48:47.765Z,65.38379
2022-10-05T21:50:47.739Z,65.71484
2022-10-05T21:52:47.752Z,66.12598
2022-10-05T21:55:30.075Z,65.82227
2022-10-05T21:57:30.060Z,65.82031
2022-10-05T21:59:30.085Z,65.88867
2022-10-05T22:01:30.178Z,65.89063
2022-10-05T22:03:30.184Z,65.62793
2022-10-05T22:05:30.226Z,65.83691
2022-10-05T22:07:30.051Z,65.74902
2022-10-05T22:09:30.137Z,65.61133
2022-10-05T22:11:10.455Z,65.13574
2022-10-05T22:13:10.477Z,65.41113
2022-10-05T22:15:10.484Z,65.26172
2022-10-05T22:17:10.446Z,66.03516
2022-10-05T22:19:10.481Z,66.1084
2022-10-05T22:21:10.464Z,65.99316
2022-10-05T22:23:10.469Z,66.27148
2022-10-05T22:26:31.891Z,66.08008
2022-10-05T22:28:33.067Z,66.04297
2022-10-05T22:30:31.804Z,66.23633
2022-10-05T22:32:31.836Z,65.75781
2022-10-05T22:34:31.871Z,66.51855
2022-10-05T22:36:31.892Z,66.23828
2022-10-05T22:38:32.207Z,65.90918
2022-10-05T22:41:17.936Z,66.31543
2022-10-05T22:43:17.904Z,66.1875
2022-10-05T22:45:17.871Z,66.86133
2022-10-05T22:47:17.997Z,66.86523
2022-10-05T22:49:17.891Z,66.71875
2022-10-05T22:51:17.898Z,66.55469
2022-10-05T22:53:17.888Z,66.64063
2022-10-05T22:56:47.603Z,66.27344
2022-10-05T22:58:47.652Z,66.81055
2022-10-05T23:00:58.827Z,65.99121
2022-10-05T23:02:47.703Z,66.63477
2022-10-05T23:04:47.705Z,66.87305
2022-10-05T23:06:47.635Z,66.32422
2022-10-05T23:08:47.608Z,66.96387
2022-10-05T23:11:49.942Z,66.92676
2022-10-05T23:13:49.896Z,66.98633
2022-10-05T23:15:49.961Z,66.99219
2022-10-05T23:17:49.945Z,66.71973
2022-10-05T23:19:49.942Z,66.84375
2022-10-05T23:21:49.897Z,66.87793
2022-10-05T23:23:49.931Z,66.7793
2022-10-05T23:27:22.269Z,66.58301
2022-10-05T23:29:22.211Z,66.75293
2022-10-05T23:31:22.291Z,66.98926
2022-10-05T23:33:22.234Z,66.98828
2022-10-05T23:35:22.203Z,66.87402
2022-10-05T23:37:22.203Z,66.91309
2022-10-05T23:39:22.237Z,66.75977
2022-10-05T23:42:24.056Z,67.39258
2022-10-05T23:44:24.059Z,67.31445
2022-10-05T23:46:24.211Z,67.39746
2022-10-05T23:48:24.131Z,67.22754
2022-10-05T23:50:24.047Z,66.98828
2022-10-05T23:52:24.034Z,66.91895
2022-10-05T23:54:24.047Z,66.94141
2022-10-05T23:57:37.777Z,67.14453
2022-10-05T23:59:37.747Z,67.62988
